createdAt,value
2018-11-03T00:00:07.155Z,99.90
2018-11-03T00:02:37.962Z,99.90
2018-11-03T00:05:07.871Z,99.90
2018-11-03T00:07:41.085Z,99.90
2018-11-03T00:10:11.902Z,99.90
2018-11-03T00:12:43.790Z,99.90
2018-11-03T00:15:14.590Z,99.90
2018-11-03T00:17:44.386Z,99.90
2018-11-03T00:20:15.234Z,99.90
2018-11-03T00:22:45.041Z,99.90
2018-11-03T00:25:14.869Z,99.90
2018-11-03T00:27:49.259Z,99.90
2018-11-03T00:30:22.459Z,99.90
2018-11-03T00:32:53.254Z,99.90
2018-11-03T00:35:26.286Z,99.90
2018-11-03T00:37:56.267Z,99.90
2018-11-03T00:40:28.387Z,99.90
2018-11-03T00:42:58.299Z,99.90
2018-11-03T00:45:28.179Z,99.90
2018-11-03T00:48:01.089Z,99.90
2018-11-03T00:50:32.006Z,99.90
2018-11-03T00:53:07.027Z,99.90
2018-11-03T00:55:37.902Z,99.90
2018-11-03T00:58:07.803Z,99.90
2018-11-03T01:00:37.762Z,99.90
2018-11-03T01:03:09.594Z,99.90
2018-11-03T01:05:41.431Z,99.90
2018-11-03T01:08:12.311Z,99.90
2018-11-03T01:10:42.175Z,99.90
2018-11-03T01:13:18.159Z,99.90
2018-11-03T01:15:48.887Z,99.90
2018-11-03T01:18:19.742Z,99.90
2018-11-03T01:20:50.502Z,99.90
2018-11-03T01:23:20.319Z,99.90
2018-11-03T01:25:51.179Z,99.90
2018-11-03T01:28:22.026Z,99.90
2018-11-03T01:30:52.847Z,99.90
2018-11-03T01:33:29.550Z,99.90
2018-11-03T01:36:01.503Z,99.90
2018-11-03T01:38:35.925Z,99.90
2018-11-03T01:41:06.730Z,99.90
2018-11-03T01:43:36.578Z,99.90
2018-11-03T01:46:07.438Z,99.90
2018-11-03T01:48:40.525Z,99.90
2018-11-03T01:51:14.394Z,99.90
2018-11-03T01:53:44.212Z,99.90
2018-11-03T01:56:14.007Z,99.90
2018-11-03T01:58:43.806Z,99.90
2018-11-03T02:01:13.639Z,99.90
2018-11-03T02:03:43.552Z,99.90
2018-11-03T02:06:13.363Z,99.90
2018-11-03T02:08:44.223Z,99.90
2018-11-03T02:11:14.090Z,99.90
2018-11-03T02:13:43.927Z,99.90
2018-11-03T02:16:13.754Z,99.90
2018-11-03T02:18:44.591Z,99.90
2018-11-03T02:21:14.491Z,99.90
2018-11-03T02:23:44.315Z,99.90
2018-11-03T02:26:14.843Z,99.90
2018-11-03T02:28:45.675Z,99.90
2018-11-03T02:31:15.554Z,99.90
2018-11-03T02:33:49.235Z,99.90
2018-11-03T02:36:20.139Z,99.90
2018-11-03T02:38:50.029Z,99.90
2018-11-03T02:41:19.843Z,99.90
2018-11-03T02:43:49.675Z,99.90
2018-11-03T02:46:19.585Z,99.90
2018-11-03T02:48:50.374Z,99.90
2018-11-03T02:51:20.198Z,99.90
2018-11-03T02:53:50.046Z,99.90
2018-11-03T02:56:19.913Z,99.90
2018-11-03T02:58:49.769Z,99.90
2018-11-03T03:01:19.592Z,99.90
2018-11-03T03:03:49.724Z,99.90
2018-11-03T03:06:19.567Z,99.90
2018-11-03T03:08:49.426Z,99.90
2018-11-03T03:11:19.355Z,99.90
2018-11-03T03:13:49.263Z,99.90
2018-11-03T03:16:19.171Z,99.90
2018-11-03T03:18:49.070Z,99.90
2018-11-03T03:21:19.907Z,99.90
2018-11-03T03:23:51.751Z,99.90
2018-11-03T03:26:23.144Z,99.90
2018-11-03T03:28:54.065Z,99.90
2018-11-03T03:31:24.155Z,99.90
2018-11-03T03:33:56.063Z,99.90
2018-11-03T03:36:27.911Z,99.90
2018-11-03T03:39:09.326Z,99.90
2018-11-03T03:41:40.091Z,99.90
2018-11-03T03:44:10.919Z,99.90
2018-11-03T03:46:46.511Z,99.90
2018-11-03T03:49:17.371Z,99.90
2018-11-03T03:51:51.374Z,99.90
2018-11-03T03:54:21.332Z,99.90
2018-11-03T03:56:52.098Z,99.90
2018-11-03T03:59:22.007Z,99.90
2018-11-03T04:01:52.786Z,99.90
2018-11-03T04:04:24.555Z,99.90
2018-11-03T04:06:57.694Z,99.90
2018-11-03T04:09:28.507Z,99.90
2018-11-03T04:12:08.643Z,99.90
2018-11-03T04:14:38.471Z,99.90
2018-11-03T04:17:08.316Z,99.90
2018-11-03T04:19:38.219Z,99.90
2018-11-03T04:22:08.091Z,99.90
2018-11-03T04:24:38.920Z,99.90
2018-11-03T04:27:10.779Z,99.90
2018-11-03T04:29:44.922Z,99.90
2018-11-03T04:32:16.823Z,99.90
2018-11-03T04:34:48.603Z,99.90
2018-11-03T04:37:19.530Z,99.90
2018-11-03T04:39:50.855Z,99.90
2018-11-03T04:42:30.499Z,99.90
2018-11-03T04:45:05.115Z,99.90
2018-11-03T04:47:35.953Z,99.90
2018-11-03T04:50:06.536Z,99.90
2018-11-03T04:52:36.492Z,99.90
2018-11-03T04:55:07.104Z,99.90
2018-11-03T04:57:37.235Z,99.90
2018-11-03T05:00:08.951Z,99.90
2018-11-03T05:02:38.808Z,99.90
2018-11-03T05:05:09.679Z,99.90
2018-11-03T05:07:40.575Z,99.90
2018-11-03T05:10:12.479Z,99.90
2018-11-03T05:12:43.267Z,99.90
2018-11-03T05:15:13.187Z,99.90
2018-11-03T05:17:43.067Z,99.90
2018-11-03T05:20:17.533Z,99.90
2018-11-03T05:22:47.327Z,99.90
2018-11-03T05:25:17.199Z,99.90
2018-11-03T05:27:48.387Z,99.90
2018-11-03T05:30:18.246Z,99.90
2018-11-03T05:32:52.011Z,99.90
2018-11-03T05:35:23.835Z,99.90
2018-11-03T05:37:54.695Z,99.90
2018-11-03T05:40:24.652Z,99.90
2018-11-03T05:42:54.523Z,99.90
2018-11-03T05:45:27.511Z,99.90
2018-11-03T05:47:58.435Z,99.90
2018-11-03T05:50:28.403Z,99.90
2018-11-03T05:52:58.255Z,99.90
2018-11-03T05:55:35.871Z,99.90
2018-11-03T05:58:06.203Z,99.90
2018-11-03T06:00:37.023Z,99.90
2018-11-03T06:03:07.867Z,99.90
2018-11-03T06:05:41.504Z,99.90
2018-11-03T06:08:14.511Z,99.90
2018-11-03T06:10:44.345Z,99.90
2018-11-03T06:13:16.200Z,99.90
2018-11-03T06:15:47.080Z,99.90
2018-11-03T06:18:23.432Z,99.90
2018-11-03T06:20:53.332Z,99.90
2018-11-03T06:23:23.151Z,99.90
2018-11-03T06:25:53.055Z,99.90
2018-11-03T06:28:29.024Z,99.90
2018-11-03T06:31:06.859Z,99.90
2018-11-03T06:33:36.748Z,99.90
2018-11-03T06:36:06.682Z,99.90
2018-11-03T06:38:37.468Z,99.90
2018-11-03T06:41:07.399Z,99.90
2018-11-03T06:43:38.211Z,99.90
2018-11-03T06:46:08.068Z,99.90
2018-11-03T06:48:39.007Z,99.90
2018-11-03T06:51:08.911Z,99.90
2018-11-03T06:53:45.135Z,99.90
2018-11-03T06:56:16.995Z,99.90
2018-11-03T06:58:50.711Z,99.90
2018-11-03T07:01:20.635Z,99.90
2018-11-03T07:03:51.491Z,99.90
2018-11-03T07:06:22.431Z,99.90
2018-11-03T07:08:52.366Z,99.90
2018-11-03T07:11:27.130Z,99.90
2018-11-03T07:14:07.951Z,99.90
2018-11-03T07:16:37.843Z,99.90
2018-11-03T07:19:09.647Z,99.90
2018-11-03T07:21:41.615Z,99.90
2018-11-03T07:24:11.607Z,99.90
2018-11-03T07:26:44.635Z,99.90
2018-11-03T07:29:15.464Z,99.90
2018-11-03T07:31:45.303Z,99.90
2018-11-03T07:34:16.290Z,99.90
2018-11-03T07:36:55.395Z,99.90
2018-11-03T07:39:25.268Z,99.90
2018-11-03T07:41:58.847Z,99.90
2018-11-03T07:44:32.844Z,99.90
2018-11-03T07:47:02.703Z,99.90
2018-11-03T07:49:33.500Z,99.90
2018-11-03T07:52:07.091Z,99.90
2018-11-03T07:54:36.979Z,99.90
2018-11-03T07:57:07.674Z,99.90
2018-11-03T07:59:37.514Z,99.90
2018-11-03T08:02:08.555Z,99.90
2018-11-03T08:04:42.399Z,99.90
2018-11-03T08:07:12.283Z,99.90
2018-11-03T08:09:44.334Z,99.90
2018-11-03T08:12:15.314Z,99.90
2018-11-03T08:14:45.137Z,99.90
2018-11-03T08:17:15.035Z,99.80
2018-11-03T08:19:46.943Z,98.70
2018-11-03T08:22:16.858Z,99.90
2018-11-03T08:24:48.740Z,98.30
2018-11-03T08:27:19.571Z,96.60
2018-11-03T08:29:51.402Z,96.50
2018-11-03T08:32:21.311Z,95.70
2018-11-03T08:34:53.144Z,94.10
2018-11-03T08:37:25.039Z,93.00
2018-11-03T08:39:55.871Z,92.60
2018-11-03T08:42:25.814Z,92.00
2018-11-03T08:44:56.623Z,91.10
2018-11-03T08:47:27.491Z,89.40
2018-11-03T08:50:02.879Z,87.10
2018-11-03T08:52:37.043Z,85.60
2018-11-03T08:55:09.543Z,87.30
2018-11-03T08:57:43.251Z,89.40
2018-11-03T09:00:18.137Z,87.20
2018-11-03T09:02:57.363Z,88.80
2018-11-03T09:05:34.474Z,91.40
2018-11-03T09:08:04.311Z,90.10
2018-11-03T09:10:35.473Z,90.00
2018-11-03T09:13:07.247Z,86.80
2018-11-03T09:15:39.167Z,86.70
2018-11-03T09:18:13.095Z,84.90
2018-11-03T09:20:43.971Z,83.30
2018-11-03T09:23:16.951Z,84.20
2018-11-03T09:25:49.551Z,83.20
2018-11-03T09:28:23.659Z,83.50
2018-11-03T09:30:54.564Z,78.50
2018-11-03T09:33:25.319Z,81.00
2018-11-03T09:35:57.339Z,81.30
2018-11-03T09:38:31.009Z,82.80
2018-11-03T09:41:01.831Z,82.20
2018-11-03T09:43:33.597Z,80.40
2018-11-03T09:46:10.571Z,79.40
2018-11-03T09:48:43.731Z,81.00
2018-11-03T09:51:14.614Z,82.70
2018-11-03T09:53:45.398Z,87.60
2018-11-03T09:56:19.924Z,89.00
2018-11-03T09:58:50.788Z,91.00
2018-11-03T10:01:21.767Z,91.90
2018-11-03T10:03:54.468Z,93.20
2018-11-03T10:06:24.322Z,92.90
2018-11-03T10:08:54.131Z,93.30
2018-11-03T10:11:25.963Z,93.90
2018-11-03T10:13:56.059Z,93.80
2018-11-03T10:16:29.000Z,94.10
2018-11-03T10:18:58.879Z,94.00
2018-11-03T10:21:30.679Z,94.70
2018-11-03T10:24:00.539Z,96.00
2018-11-03T10:26:32.303Z,96.90
2018-11-03T10:29:03.334Z,97.40
2018-11-03T10:31:34.187Z,97.50
2018-11-03T10:34:08.994Z,98.10
2018-11-03T10:36:38.839Z,99.20
2018-11-03T10:39:13.592Z,99.60
2018-11-03T10:41:47.231Z,99.50
2018-11-03T10:44:21.139Z,99.90
2018-11-03T10:47:01.783Z,99.90
2018-11-03T10:49:32.631Z,99.90
2018-11-03T10:52:06.239Z,99.90
2018-11-03T10:54:37.051Z,99.90
2018-11-03T10:57:07.639Z,99.90
2018-11-03T10:59:37.751Z,99.60
2018-11-03T11:02:13.287Z,99.40
2018-11-03T11:04:48.435Z,97.50
2018-11-03T11:07:24.599Z,97.50
2018-11-03T11:10:11.307Z,96.70
2018-11-03T11:12:44.427Z,96.00
2018-11-03T11:15:32.747Z,95.60
2018-11-03T11:18:06.507Z,95.20
2018-11-03T11:20:37.395Z,95.20
2018-11-03T11:23:07.306Z,93.60
2018-11-03T11:25:40.308Z,93.60
2018-11-03T11:28:12.142Z,93.40
2018-11-03T11:30:44.148Z,92.80
2018-11-03T11:33:16.171Z,92.70
2018-11-03T11:35:50.739Z,91.70
2018-11-03T11:38:20.767Z,88.90
2018-11-03T11:40:53.892Z,90.40
2018-11-03T11:43:24.679Z,88.20
2018-11-03T11:45:55.588Z,83.60
2018-11-03T11:48:26.501Z,83.90
2018-11-03T11:51:00.215Z,87.30
2018-11-03T11:53:32.023Z,88.40
2018-11-03T11:56:07.066Z,84.90
2018-11-03T11:58:37.867Z,83.50
2018-11-03T12:01:09.767Z,81.70
2018-11-03T12:03:40.655Z,82.60
2018-11-03T12:06:13.825Z,79.70
2018-11-03T12:08:45.672Z,75.90
2018-11-03T12:11:17.663Z,74.00
2018-11-03T12:13:47.467Z,75.90
2018-11-03T12:16:18.556Z,75.40
2018-11-03T12:18:49.208Z,74.70
2018-11-03T12:21:19.279Z,74.10
2018-11-03T12:23:52.720Z,76.60
2018-11-03T12:26:34.755Z,77.30
2018-11-03T12:29:04.775Z,77.50
2018-11-03T12:31:36.619Z,80.50
2018-11-03T12:34:13.208Z,82.40
2018-11-03T12:36:45.619Z,81.10
2018-11-03T12:39:29.612Z,81.00
2018-11-03T12:41:59.523Z,78.70
2018-11-03T12:44:32.799Z,77.50
2018-11-03T12:47:02.764Z,75.80
2018-11-03T12:49:33.584Z,76.40
2018-11-03T12:52:03.713Z,75.80
2018-11-03T12:54:33.530Z,76.70
2018-11-03T12:57:08.928Z,78.00
2018-11-03T12:59:38.776Z,76.70
2018-11-03T13:02:11.872Z,74.80
2018-11-03T13:04:43.812Z,73.50
2018-11-03T13:07:18.093Z,74.00
2018-11-03T13:09:50.310Z,74.80
2018-11-03T13:12:23.447Z,75.90
2018-11-03T13:14:54.296Z,75.70
2018-11-03T13:17:26.116Z,74.80
2018-11-03T13:19:55.908Z,75.90
2018-11-03T13:22:25.724Z,75.80
2018-11-03T13:24:55.592Z,76.20
2018-11-03T13:27:25.499Z,76.70
2018-11-03T13:29:57.355Z,78.20
2018-11-03T13:32:27.257Z,78.80
2018-11-03T13:34:58.171Z,78.90
2018-11-03T13:37:28.036Z,78.80
2018-11-03T13:40:02.446Z,78.30
2018-11-03T13:42:32.465Z,78.00
2018-11-03T13:45:06.466Z,79.30
2018-11-03T13:47:39.134Z,81.20
2018-11-03T13:50:16.491Z,82.90
2018-11-03T13:52:50.747Z,83.20
2018-11-03T13:55:24.884Z,83.70
2018-11-03T13:58:01.773Z,84.40
2018-11-03T14:00:32.640Z,84.60
2018-11-03T14:03:07.537Z,84.70
2018-11-03T14:05:39.387Z,85.00
2018-11-03T14:08:10.203Z,85.80
2018-11-03T14:10:42.120Z,86.30
2018-11-03T14:13:12.004Z,87.60
2018-11-03T14:15:42.869Z,88.30
2018-11-03T14:18:12.677Z,90.30
2018-11-03T14:20:42.539Z,90.40
2018-11-03T14:23:12.478Z,90.30
2018-11-03T14:25:42.423Z,91.00
2018-11-03T14:30:33.532Z,91.80
2018-11-03T14:33:07.524Z,93.00
2018-11-03T14:35:40.508Z,93.80
2018-11-03T14:38:12.348Z,94.90
2018-11-03T14:40:42.243Z,95.20
2018-11-03T14:43:18.396Z,96.00
2018-11-03T14:46:05.504Z,96.80
2018-11-03T14:48:38.556Z,97.10
2018-11-03T14:51:10.534Z,97.70
2018-11-03T14:53:40.237Z,98.20
2018-11-03T14:56:14.939Z,98.60
2018-11-03T14:58:44.840Z,98.90
2018-11-03T15:01:15.672Z,98.90
2018-11-03T15:03:47.559Z,99.40
2018-11-03T15:06:18.379Z,99.90
2018-11-03T15:08:51.392Z,99.90
2018-11-03T15:11:22.255Z,99.90
2018-11-03T15:14:06.503Z,99.90
2018-11-03T15:16:38.707Z,99.90
2018-11-03T15:19:10.667Z,99.90
2018-11-03T15:21:42.535Z,99.90
2018-11-03T15:24:22.039Z,99.90
2018-11-03T15:27:04.513Z,99.90
2018-11-03T15:29:35.315Z,99.90
2018-11-03T15:32:07.139Z,99.90
2018-11-03T15:34:37.007Z,99.90
2018-11-03T15:37:10.812Z,99.90
2018-11-03T15:39:44.455Z,99.90
2018-11-03T15:42:16.536Z,99.90
2018-11-03T15:44:52.547Z,99.90
2018-11-03T15:47:25.895Z,99.90
2018-11-03T15:49:59.895Z,99.90
2018-11-03T15:52:30.924Z,99.90
2018-11-03T15:55:00.741Z,99.90
2018-11-03T15:57:30.572Z,99.90
2018-11-03T16:00:00.496Z,99.90
2018-11-03T16:02:31.347Z,99.90
2018-11-03T16:05:02.270Z,99.90
2018-11-03T16:07:32.163Z,99.90
2018-11-03T16:10:08.080Z,99.90
2018-11-03T16:12:45.351Z,99.90
2018-11-03T16:15:18.395Z,99.90
2018-11-03T16:17:48.172Z,99.90
2018-11-03T16:20:21.144Z,99.90
2018-11-03T16:22:52.128Z,99.90
2018-11-03T16:25:28.644Z,99.90
2018-11-03T16:28:00.395Z,99.90
2018-11-03T16:30:30.212Z,99.90
2018-11-03T16:32:59.995Z,99.90
2018-11-03T16:35:30.103Z,99.90
2018-11-03T16:37:59.908Z,99.90
2018-11-03T16:40:32.809Z,99.90
2018-11-03T16:43:03.657Z,99.90
2018-11-03T16:45:37.559Z,99.90
2018-11-03T16:48:07.456Z,99.90
2018-11-03T16:50:37.351Z,99.90
2018-11-03T16:53:08.228Z,99.90
2018-11-03T16:55:38.103Z,99.90
2018-11-03T16:58:09.968Z,99.90
2018-11-03T17:00:39.812Z,99.90
2018-11-03T17:03:09.572Z,99.90
2018-11-03T17:05:40.024Z,99.90
2018-11-03T17:08:10.842Z,99.90
2018-11-03T17:10:40.679Z,99.90
2018-11-03T17:13:12.648Z,99.90
2018-11-03T17:15:47.811Z,99.90
2018-11-03T17:18:19.668Z,99.90
2018-11-03T17:20:53.140Z,99.90
2018-11-03T17:23:26.940Z,99.90
2018-11-03T17:25:57.763Z,99.90
2018-11-03T17:28:28.559Z,99.90
2018-11-03T17:30:58.444Z,99.90
2018-11-03T17:33:28.252Z,99.90
2018-11-03T17:35:58.067Z,99.90
2018-11-03T17:38:31.028Z,99.90
2018-11-03T17:41:00.960Z,99.90
2018-11-03T17:43:35.499Z,99.90
2018-11-03T17:46:08.600Z,99.90
2018-11-03T17:48:38.411Z,99.90
2018-11-03T17:51:08.327Z,99.90
2018-11-03T17:53:38.203Z,99.90
2018-11-03T17:56:08.014Z,99.90
2018-11-03T17:58:38.784Z,99.90
2018-11-03T18:01:10.012Z,99.90
2018-11-03T18:03:39.661Z,99.90
2018-11-03T18:06:10.593Z,99.90
2018-11-03T18:08:40.465Z,99.90
2018-11-03T18:11:12.268Z,99.90
2018-11-03T18:13:44.195Z,99.90
2018-11-03T18:16:14.083Z,99.90
2018-11-03T18:18:44.919Z,99.90
2018-11-03T18:21:17.792Z,99.90
2018-11-03T18:24:00.625Z,99.90
2018-11-03T18:26:32.418Z,99.90
2018-11-03T18:29:02.135Z,99.90
2018-11-03T18:31:33.024Z,99.90
2018-11-03T18:34:03.884Z,99.90
2018-11-03T18:36:35.596Z,99.90
2018-11-03T18:39:08.536Z,99.90
2018-11-03T18:41:38.512Z,99.90
2018-11-03T18:44:11.512Z,99.90
2018-11-03T18:46:41.401Z,99.90
2018-11-03T18:49:11.140Z,99.90
2018-11-03T18:51:41.053Z,99.90
2018-11-03T18:54:11.972Z,99.90
2018-11-03T18:56:43.720Z,99.90
2018-11-03T18:59:13.656Z,99.90
2018-11-03T19:01:43.512Z,99.90
2018-11-03T19:04:13.300Z,99.90
2018-11-03T19:06:44.096Z,99.90
2018-11-03T19:09:14.935Z,99.90
2018-11-03T19:11:44.728Z,99.90
2018-11-03T19:14:14.552Z,99.90
2018-11-03T19:16:45.384Z,99.90
2018-11-03T19:19:15.324Z,99.90
2018-11-03T19:21:45.227Z,99.90
2018-11-03T19:24:20.912Z,99.90
2018-11-03T19:26:51.708Z,99.90
2018-11-03T19:29:21.641Z,99.90
2018-11-03T19:31:53.467Z,99.90
2018-11-03T19:34:26.556Z,99.90
2018-11-03T19:36:57.362Z,99.90
2018-11-03T19:39:27.448Z,99.90
2018-11-03T19:41:58.400Z,99.90
2018-11-03T19:44:29.347Z,99.90
2018-11-03T19:47:01.296Z,99.90
2018-11-03T19:49:31.140Z,99.90
2018-11-03T19:52:01.016Z,99.90
2018-11-03T19:54:35.615Z,99.90
2018-11-03T19:57:07.413Z,99.90
2018-11-03T19:59:41.264Z,99.90
2018-11-03T20:02:11.288Z,99.90
2018-11-03T20:04:42.160Z,99.90
2018-11-03T20:07:14.064Z,99.90
2018-11-03T20:09:45.924Z,99.90
2018-11-03T20:12:16.848Z,99.90
2018-11-03T20:14:47.753Z,99.90
2018-11-03T20:17:25.756Z,99.90
2018-11-03T20:19:55.696Z,99.90
2018-11-03T20:22:25.582Z,99.90
2018-11-03T20:24:55.504Z,99.90
2018-11-03T20:27:37.364Z,99.90
2018-11-03T20:30:12.928Z,99.90
2018-11-03T20:32:47.569Z,99.90
2018-11-03T20:35:29.897Z,99.90
2018-11-03T20:38:06.245Z,99.90
2018-11-03T20:40:36.140Z,99.90
2018-11-03T20:43:06.104Z,99.90
2018-11-03T20:45:40.032Z,99.90
2018-11-03T20:48:10.064Z,99.90
2018-11-03T20:50:40.903Z,99.90
2018-11-03T20:53:10.814Z,99.90
2018-11-03T20:55:40.720Z,99.90
2018-11-03T20:58:10.620Z,99.90
2018-11-03T21:00:40.792Z,99.90
2018-11-03T21:03:11.593Z,99.90
2018-11-03T21:05:42.524Z,99.90
2018-11-03T21:08:13.725Z,99.90
2018-11-03T21:10:43.468Z,99.90
2018-11-03T21:13:13.400Z,99.90
2018-11-03T21:15:43.328Z,99.90
2018-11-03T21:18:13.226Z,99.90
2018-11-03T21:20:43.147Z,99.90
2018-11-03T21:23:13.080Z,99.90
2018-11-03T21:25:42.944Z,99.90
2018-11-03T21:28:14.824Z,99.90
2018-11-03T21:30:44.648Z,99.90
2018-11-03T21:33:15.661Z,99.90
2018-11-03T21:35:49.448Z,99.90
2018-11-03T21:38:21.460Z,99.90
2018-11-03T21:40:52.279Z,99.90
2018-11-03T21:43:22.212Z,99.90
2018-11-03T21:45:52.022Z,99.90
2018-11-03T21:48:21.899Z,99.90
2018-11-03T21:50:52.738Z,99.90
2018-11-03T21:53:22.660Z,99.90
2018-11-03T21:55:53.575Z,99.90
2018-11-03T21:58:23.428Z,99.90
2018-11-03T22:00:53.328Z,99.90
2018-11-03T22:03:23.256Z,99.90
2018-11-03T22:05:55.062Z,99.90
2018-11-03T22:08:26.952Z,99.90
2018-11-03T22:10:58.823Z,99.90
2018-11-03T22:13:34.304Z,99.90
2018-11-03T22:16:04.530Z,99.90
2018-11-03T22:18:43.060Z,99.90
2018-11-03T22:21:20.540Z,99.90
2018-11-03T22:23:54.080Z,99.90
2018-11-03T22:26:24.984Z,99.90
2018-11-03T22:28:59.184Z,99.90
2018-11-03T22:31:29.461Z,99.90
2018-11-03T22:34:00.344Z,99.90
2018-11-03T22:36:31.292Z,99.90
2018-11-03T22:39:01.196Z,99.90
2018-11-03T22:41:31.220Z,99.90
2018-11-03T22:44:01.101Z,99.90
2018-11-03T22:46:32.558Z,99.90
2018-11-03T22:49:03.472Z,99.90
2018-11-03T22:51:34.449Z,99.90
2018-11-03T22:54:04.220Z,99.90
2018-11-03T22:56:34.176Z,99.90
2018-11-03T22:59:08.275Z,99.90
2018-11-03T23:01:42.198Z,99.90
2018-11-03T23:04:14.024Z,99.90
2018-11-03T23:06:49.382Z,99.90
2018-11-03T23:09:20.281Z,99.90
2018-11-03T23:11:51.116Z,99.90
2018-11-03T23:14:21.972Z,99.90
2018-11-03T23:16:51.896Z,99.90
2018-11-03T23:19:23.758Z,99.90
2018-11-03T23:21:55.674Z,99.90
2018-11-03T23:24:31.376Z,99.90
2018-11-03T23:27:06.100Z,99.90
2018-11-03T23:29:37.103Z,99.90
2018-11-03T23:32:06.988Z,99.90
2018-11-03T23:34:36.884Z,99.90
2018-11-03T23:37:09.764Z,99.90
2018-11-03T23:39:39.552Z,99.90
2018-11-03T23:42:09.428Z,99.90
2018-11-03T23:44:41.292Z,99.90
2018-11-03T23:47:11.124Z,99.90
2018-11-03T23:49:41.348Z,99.90
2018-11-03T23:52:13.172Z,99.90
2018-11-03T23:54:44.025Z,99.90
2018-11-03T23:57:16.996Z,99.90
2018-11-03T23:59:47.881Z,99.90
